sensor_id;sensor_type;location;lat;lon;timestamp;P1;durP1;ratioP1;P2;durP2;ratioP2
78296;SDS011;67555;47.660;19.622;2024-01-06T00:01:01;58.95;;;27.55;;
78296;SDS011;67555;47.660;19.622;2024-01-06T00:03:26;74.25;;;29.52;;
78296;SDS011;67555;47.660;19.622;2024-01-06T00:05:52;171.70;;;63.90;;
78296;SDS011;67555;47.660;19.622;2024-01-06T00:08:18;272.48;;;97.05;;
78296;SDS011;67555;47.660;19.622;2024-01-06T00:10:43;61.08;;;29.20;;
78296;SDS011;67555;47.660;19.622;2024-01-06T00:13:10;57.92;;;24.45;;
78296;SDS011;67555;47.660;19.622;2024-01-06T00:15:35;37.00;;;17.95;;
78296;SDS011;67555;47.660;19.622;2024-01-06T00:18:01;43.60;;;21.10;;
78296;SDS011;67555;47.660;19.622;2024-01-06T00:20:27;48.58;;;21.85;;
78296;SDS011;67555;47.660;19.622;2024-01-06T00:22:53;58.58;;;27.45;;
78296;SDS011;67555;47.660;19.622;2024-01-06T00:25:18;36.63;;;17.50;;
78296;SDS011;67555;47.660;19.622;2024-01-06T00:27:44;62.20;;;29.55;;
78296;SDS011;67555;47.660;19.622;2024-01-06T00:30:10;39.50;;;18.92;;
78296;SDS011;67555;47.660;19.622;2024-01-06T00:32:36;93.32;;;37.67;;
78296;SDS011;67555;47.660;19.622;2024-01-06T00:35:02;83.35;;;34.83;;
78296;SDS011;67555;47.660;19.622;2024-01-06T00:37:27;81.65;;;37.15;;
78296;SDS011;67555;47.660;19.622;2024-01-06T00:39:53;119.65;;;47.55;;
78296;SDS011;67555;47.660;19.622;2024-01-06T00:42:19;35.22;;;18.42;;
78296;SDS011;67555;47.660;19.622;2024-01-06T00:44:44;22.08;;;13.02;;
78296;SDS011;67555;47.660;19.622;2024-01-06T00:47:10;50.55;;;24.05;;
78296;SDS011;67555;47.660;19.622;2024-01-06T00:49:36;42.83;;;22.83;;
78296;SDS011;67555;47.660;19.622;2024-01-06T00:52:02;85.90;;;38.28;;
78296;SDS011;67555;47.660;19.622;2024-01-06T00:54:28;25.63;;;11.57;;
78296;SDS011;67555;47.660;19.622;2024-01-06T00:56:54;130.05;;;48.47;;
78296;SDS011;67555;47.660;19.622;2024-01-06T00:59:21;23.65;;;13.18;;
78296;SDS011;67555;47.660;19.622;2024-01-06T01:01:47;23.83;;;12.10;;
78296;SDS011;67555;47.660;19.622;2024-01-06T01:04:13;31.30;;;18.95;;
78296;SDS011;67555;47.660;19.622;2024-01-06T01:06:38;23.35;;;12.80;;
78296;SDS011;67555;47.660;19.622;2024-01-06T01:09:04;28.90;;;13.27;;
78296;SDS011;67555;47.660;19.622;2024-01-06T01:11:30;26.98;;;12.95;;
78296;SDS011;67555;47.660;19.622;2024-01-06T01:13:56;28.80;;;12.73;;
78296;SDS011;67555;47.660;19.622;2024-01-06T01:16:21;26.45;;;13.98;;
78296;SDS011;67555;47.660;19.622;2024-01-06T01:18:47;27.15;;;13.60;;
78296;SDS011;67555;47.660;19.622;2024-01-06T01:21:13;25.83;;;14.00;;
78296;SDS011;67555;47.660;19.622;2024-01-06T01:23:40;25.05;;;14.32;;
78296;SDS011;67555;47.660;19.622;2024-01-06T01:26:05;32.65;;;17.02;;
78296;SDS011;67555;47.660;19.622;2024-01-06T01:28:31;24.17;;;11.15;;
78296;SDS011;67555;47.660;19.622;2024-01-06T01:30:57;21.30;;;11.98;;
78296;SDS011;67555;47.660;19.622;2024-01-06T01:33:22;21.10;;;11.30;;
78296;SDS011;67555;47.660;19.622;2024-01-06T01:35:49;19.45;;;10.52;;
78296;SDS011;67555;47.660;19.622;2024-01-06T01:38:14;16.55;;;9.52;;
78296;SDS011;67555;47.660;19.622;2024-01-06T01:40:40;70.03;;;23.13;;
78296;SDS011;67555;47.660;19.622;2024-01-06T01:43:15;430.85;;;130.35;;
78296;SDS011;67555;47.660;19.622;2024-01-06T01:45:43;425.73;;;129.27;;
78296;SDS011;67555;47.660;19.622;2024-01-06T01:48:10;189.43;;;69.15;;
78296;SDS011;67555;47.660;19.622;2024-01-06T01:50:36;99.07;;;38.40;;
78296;SDS011;67555;47.660;19.622;2024-01-06T01:53:02;98.45;;;35.70;;
78296;SDS011;67555;47.660;19.622;2024-01-06T01:55:27;50.03;;;23.02;;
78296;SDS011;67555;47.660;19.622;2024-01-06T01:57:53;51.60;;;20.83;;
78296;SDS011;67555;47.660;19.622;2024-01-06T02:00:20;25.60;;;14.88;;
78296;SDS011;67555;47.660;19.622;2024-01-06T02:02:45;25.30;;;11.88;;
78296;SDS011;67555;47.660;19.622;2024-01-06T02:05:11;35.38;;;17.15;;
78296;SDS011;67555;47.660;19.622;2024-01-06T02:07:37;27.55;;;14.35;;
78296;SDS011;67555;47.660;19.622;2024-01-06T02:10:03;27.13;;;13.50;;
78296;SDS011;67555;47.660;19.622;2024-01-06T02:12:29;19.08;;;11.60;;
78296;SDS011;67555;47.660;19.622;2024-01-06T02:14:55;34.13;;;17.50;;
78296;SDS011;67555;47.660;19.622;2024-01-06T02:17:20;67.68;;;31.92;;
78296;SDS011;67555;47.660;19.622;2024-01-06T02:19:46;107.53;;;51.40;;
78296;SDS011;67555;47.660;19.622;2024-01-06T02:22:12;24.42;;;14.05;;
78296;SDS011;67555;47.660;19.622;2024-01-06T02:24:38;31.52;;;15.85;;
78296;SDS011;67555;47.660;19.622;2024-01-06T02:27:03;34.13;;;16.15;;
78296;SDS011;67555;47.660;19.622;2024-01-06T02:29:29;47.92;;;22.98;;
78296;SDS011;67555;47.660;19.622;2024-01-06T02:31:56;42.15;;;20.35;;
78296;SDS011;67555;47.660;19.622;2024-01-06T02:34:23;32.97;;;16.33;;
78296;SDS011;67555;47.660;19.622;2024-01-06T02:36:48;27.55;;;11.25;;
78296;SDS011;67555;47.660;19.622;2024-01-06T02:39:14;17.35;;;9.73;;
78296;SDS011;67555;47.660;19.622;2024-01-06T02:41:39;27.17;;;13.05;;
78296;SDS011;67555;47.660;19.622;2024-01-06T02:44:05;21.30;;;12.00;;
78296;SDS011;67555;47.660;19.622;2024-01-06T02:46:31;45.80;;;19.33;;
78296;SDS011;67555;47.660;19.622;2024-01-06T02:48:57;48.20;;;20.33;;
78296;SDS011;67555;47.660;19.622;2024-01-06T02:51:22;39.13;;;20.73;;
78296;SDS011;67555;47.660;19.622;2024-01-06T02:53:48;21.33;;;11.88;;
78296;SDS011;67555;47.660;19.622;2024-01-06T02:56:14;22.42;;;11.45;;
78296;SDS011;67555;47.660;19.622;2024-01-06T02:58:39;21.30;;;10.50;;
78296;SDS011;67555;47.660;19.622;2024-01-06T03:01:05;26.30;;;13.30;;
78296;SDS011;67555;47.660;19.622;2024-01-06T03:03:31;40.17;;;20.85;;
78296;SDS011;67555;47.660;19.622;2024-01-06T03:05:57;41.63;;;22.13;;
78296;SDS011;67555;47.660;19.622;2024-01-06T03:08:23;30.30;;;16.60;;
78296;SDS011;67555;47.660;19.622;2024-01-06T03:10:49;35.42;;;18.60;;
78296;SDS011;67555;47.660;19.622;2024-01-06T03:13:14;26.50;;;13.55;;
78296;SDS011;67555;47.660;19.622;2024-01-06T03:15:40;30.67;;;15.65;;
78296;SDS011;67555;47.660;19.622;2024-01-06T03:18:06;23.45;;;12.82;;
78296;SDS011;67555;47.660;19.622;2024-01-06T03:20:31;24.45;;;10.57;;
78296;SDS011;67555;47.660;19.622;2024-01-06T03:22:57;21.13;;;10.77;;
78296;SDS011;67555;47.660;19.622;2024-01-06T03:25:23;18.85;;;9.70;;
78296;SDS011;67555;47.660;19.622;2024-01-06T03:27:48;24.30;;;9.40;;
78296;SDS011;67555;47.660;19.622;2024-01-06T03:30:14;22.75;;;11.88;;
78296;SDS011;67555;47.660;19.622;2024-01-06T03:32:40;20.63;;;10.50;;
78296;SDS011;67555;47.660;19.622;2024-01-06T03:35:05;17.83;;;9.13;;
78296;SDS011;67555;47.660;19.622;2024-01-06T03:37:32;15.98;;;7.63;;
78296;SDS011;67555;47.660;19.622;2024-01-06T03:39:58;16.77;;;7.53;;
78296;SDS011;67555;47.660;19.622;2024-01-06T03:42:24;14.85;;;7.35;;
78296;SDS011;67555;47.660;19.622;2024-01-06T03:44:50;150.88;;;49.63;;
78296;SDS011;67555;47.660;19.622;2024-01-06T03:47:15;195.48;;;64.90;;
78296;SDS011;67555;47.660;19.622;2024-01-06T03:49:41;309.90;;;85.25;;
78296;SDS011;67555;47.660;19.622;2024-01-06T03:52:07;147.55;;;43.25;;
78296;SDS011;67555;47.660;19.622;2024-01-06T03:54:32;211.02;;;65.93;;
78296;SDS011;67555;47.660;19.622;2024-01-06T03:56:58;90.88;;;29.27;;
78296;SDS011;67555;47.660;19.622;2024-01-06T03:59:24;99.10;;;35.92;;
78296;SDS011;67555;47.660;19.622;2024-01-06T04:01:50;36.95;;;17.63;;
78296;SDS011;67555;47.660;19.622;2024-01-06T04:04:16;16.88;;;9.50;;
78296;SDS011;67555;47.660;19.622;2024-01-06T04:06:41;17.35;;;8.65;;
78296;SDS011;67555;47.660;19.622;2024-01-06T04:09:07;17.33;;;8.57;;
78296;SDS011;67555;47.660;19.622;2024-01-06T04:11:34;13.85;;;9.02;;
78296;SDS011;67555;47.660;19.622;2024-01-06T04:14:00;14.85;;;7.32;;
78296;SDS011;67555;47.660;19.622;2024-01-06T04:16:28;27.67;;;12.73;;
78296;SDS011;67555;47.660;19.622;2024-01-06T04:18:54;15.40;;;8.20;;
78296;SDS011;67555;47.660;19.622;2024-01-06T04:21:21;24.05;;;11.85;;
78296;SDS011;67555;47.660;19.622;2024-01-06T04:23:47;24.67;;;11.68;;
78296;SDS011;67555;47.660;19.622;2024-01-06T04:26:13;13.55;;;7.57;;
78296;SDS011;67555;47.660;19.622;2024-01-06T04:28:38;18.70;;;8.30;;
78296;SDS011;67555;47.660;19.622;2024-01-06T04:31:04;14.57;;;8.43;;
78296;SDS011;67555;47.660;19.622;2024-01-06T04:33:30;14.07;;;6.43;;
78296;SDS011;67555;47.660;19.622;2024-01-06T04:35:58;9.80;;;5.93;;
78296;SDS011;67555;47.660;19.622;2024-01-06T04:38:24;13.68;;;6.72;;
78296;SDS011;67555;47.660;19.622;2024-01-06T04:40:50;30.38;;;14.98;;
78296;SDS011;67555;47.660;19.622;2024-01-06T04:43:15;14.88;;;6.85;;
78296;SDS011;67555;47.660;19.622;2024-01-06T04:45:41;14.23;;;7.20;;
78296;SDS011;67555;47.660;19.622;2024-01-06T04:48:07;11.55;;;6.10;;
78296;SDS011;67555;47.660;19.622;2024-01-06T04:50:32;12.80;;;5.28;;
78296;SDS011;67555;47.660;19.622;2024-01-06T04:52:58;9.23;;;6.22;;
78296;SDS011;67555;47.660;19.622;2024-01-06T04:55:24;13.05;;;7.15;;
78296;SDS011;67555;47.660;19.622;2024-01-06T04:57:49;10.32;;;5.03;;
78296;SDS011;67555;47.660;19.622;2024-01-06T05:00:15;13.77;;;6.28;;
78296;SDS011;67555;47.660;19.622;2024-01-06T05:02:41;9.63;;;6.00;;
78296;SDS011;67555;47.660;19.622;2024-01-06T05:05:07;487.15;;;146.32;;
78296;SDS011;67555;47.660;19.622;2024-01-06T05:07:33;462.42;;;113.40;;
78296;SDS011;67555;47.660;19.622;2024-01-06T05:09:59;475.63;;;127.03;;
78296;SDS011;67555;47.660;19.622;2024-01-06T05:12:24;240.35;;;72.07;;
78296;SDS011;67555;47.660;19.622;2024-01-06T05:14:50;40.00;;;23.08;;
78296;SDS011;67555;47.660;19.622;2024-01-06T05:17:16;65.00;;;29.60;;
78296;SDS011;67555;47.660;19.622;2024-01-06T05:19:41;20.38;;;9.38;;
78296;SDS011;67555;47.660;19.622;2024-01-06T05:22:07;15.00;;;6.75;;
78296;SDS011;67555;47.660;19.622;2024-01-06T05:24:33;13.30;;;8.25;;
78296;SDS011;67555;47.660;19.622;2024-01-06T05:26:58;11.48;;;7.05;;
78296;SDS011;67555;47.660;19.622;2024-01-06T05:29:24;13.85;;;6.75;;
78296;SDS011;67555;47.660;19.622;2024-01-06T05:31:51;15.35;;;7.38;;
78296;SDS011;67555;47.660;19.622;2024-01-06T05:34:17;15.50;;;7.28;;
78296;SDS011;67555;47.660;19.622;2024-01-06T05:36:42;21.02;;;13.43;;
78296;SDS011;67555;47.660;19.622;2024-01-06T05:39:08;22.52;;;13.70;;
78296;SDS011;67555;47.660;19.622;2024-01-06T05:41:38;18.77;;;10.77;;
78296;SDS011;67555;47.660;19.622;2024-01-06T05:44:04;10.55;;;5.80;;
78296;SDS011;67555;47.660;19.622;2024-01-06T05:46:31;11.43;;;5.72;;
78296;SDS011;67555;47.660;19.622;2024-01-06T05:48:56;15.32;;;7.47;;
78296;SDS011;67555;47.660;19.622;2024-01-06T05:51:23;16.45;;;8.15;;
78296;SDS011;67555;47.660;19.622;2024-01-06T05:53:49;14.63;;;8.05;;
78296;SDS011;67555;47.660;19.622;2024-01-06T05:56:24;13.02;;;6.18;;
78296;SDS011;67555;47.660;19.622;2024-01-06T05:58:51;12.15;;;5.75;;
78296;SDS011;67555;47.660;19.622;2024-01-06T06:01:18;12.55;;;6.13;;
78296;SDS011;67555;47.660;19.622;2024-01-06T06:03:44;12.10;;;6.00;;
78296;SDS011;67555;47.660;19.622;2024-01-06T06:06:11;14.32;;;5.97;;
78296;SDS011;67555;47.660;19.622;2024-01-06T06:08:36;9.02;;;5.35;;
78296;SDS011;67555;47.660;19.622;2024-01-06T06:11:02;10.48;;;5.97;;
78296;SDS011;67555;47.660;19.622;2024-01-06T06:13:35;9.18;;;5.57;;
78296;SDS011;67555;47.660;19.622;2024-01-06T06:16:05;9.75;;;5.55;;
78296;SDS011;67555;47.660;19.622;2024-01-06T06:18:32;10.77;;;5.45;;
78296;SDS011;67555;47.660;19.622;2024-01-06T06:20:58;10.32;;;5.20;;
78296;SDS011;67555;47.660;19.622;2024-01-06T06:23:25;9.80;;;5.22;;
78296;SDS011;67555;47.660;19.622;2024-01-06T06:25:54;8.10;;;5.20;;
78296;SDS011;67555;47.660;19.622;2024-01-06T06:28:19;11.32;;;4.40;;
78296;SDS011;67555;47.660;19.622;2024-01-06T06:30:45;7.95;;;5.43;;
78296;SDS011;67555;47.660;19.622;2024-01-06T06:33:11;12.10;;;6.35;;
78296;SDS011;67555;47.660;19.622;2024-01-06T06:35:37;11.07;;;5.30;;
78296;SDS011;67555;47.660;19.622;2024-01-06T06:38:02;11.90;;;5.63;;
78296;SDS011;67555;47.660;19.622;2024-01-06T06:40:28;12.30;;;5.63;;
78296;SDS011;67555;47.660;19.622;2024-01-06T06:42:55;13.13;;;6.30;;
78296;SDS011;67555;47.660;19.622;2024-01-06T06:45:20;12.27;;;5.53;;
78296;SDS011;67555;47.660;19.622;2024-01-06T06:47:50;15.15;;;7.85;;
78296;SDS011;67555;47.660;19.622;2024-01-06T06:50:17;10.40;;;5.57;;
78296;SDS011;67555;47.660;19.622;2024-01-06T06:52:43;10.23;;;5.72;;
78296;SDS011;67555;47.660;19.622;2024-01-06T06:55:09;8.95;;;5.28;;
78296;SDS011;67555;47.660;19.622;2024-01-06T06:57:35;12.73;;;6.47;;
78296;SDS011;67555;47.660;19.622;2024-01-06T07:00:01;11.65;;;5.47;;
78296;SDS011;67555;47.660;19.622;2024-01-06T07:02:27;17.80;;;6.63;;
78296;SDS011;67555;47.660;19.622;2024-01-06T07:04:53;13.63;;;6.03;;
78296;SDS011;67555;47.660;19.622;2024-01-06T07:07:19;14.45;;;6.97;;
78296;SDS011;67555;47.660;19.622;2024-01-06T07:09:44;11.75;;;6.70;;
78296;SDS011;67555;47.660;19.622;2024-01-06T07:12:10;8.63;;;6.03;;
78296;SDS011;67555;47.660;19.622;2024-01-06T07:14:36;80.85;;;30.95;;
78296;SDS011;67555;47.660;19.622;2024-01-06T07:17:04;167.23;;;55.30;;
78296;SDS011;67555;47.660;19.622;2024-01-06T07:19:33;264.95;;;77.10;;
78296;SDS011;67555;47.660;19.622;2024-01-06T07:21:58;285.77;;;85.32;;
78296;SDS011;67555;47.660;19.622;2024-01-06T07:24:24;136.32;;;41.88;;
78296;SDS011;67555;47.660;19.622;2024-01-06T07:26:50;86.65;;;27.98;;
78296;SDS011;67555;47.660;19.622;2024-01-06T07:29:16;431.60;;;148.00;;
78296;SDS011;67555;47.660;19.622;2024-01-06T07:31:42;104.80;;;41.67;;
78296;SDS011;67555;47.660;19.622;2024-01-06T07:34:07;51.13;;;19.90;;
78296;SDS011;67555;47.660;19.622;2024-01-06T07:36:33;68.05;;;23.02;;
78296;SDS011;67555;47.660;19.622;2024-01-06T07:38:59;50.88;;;19.17;;
78296;SDS011;67555;47.660;19.622;2024-01-06T07:41:24;16.83;;;7.95;;
78296;SDS011;67555;47.660;19.622;2024-01-06T07:43:50;48.25;;;20.70;;
78296;SDS011;67555;47.660;19.622;2024-01-06T07:46:16;16.15;;;9.40;;
78296;SDS011;67555;47.660;19.622;2024-01-06T07:48:44;21.33;;;11.50;;
78296;SDS011;67555;47.660;19.622;2024-01-06T07:51:10;28.10;;;14.35;;
78296;SDS011;67555;47.660;19.622;2024-01-06T07:53:36;15.60;;;7.65;;
78296;SDS011;67555;47.660;19.622;2024-01-06T07:56:01;12.38;;;7.63;;
78296;SDS011;67555;47.660;19.622;2024-01-06T07:58:28;14.20;;;8.60;;
78296;SDS011;67555;47.660;19.622;2024-01-06T08:00:53;11.27;;;7.45;;
78296;SDS011;67555;47.660;19.622;2024-01-06T08:03:19;15.48;;;7.78;;
78296;SDS011;67555;47.660;19.622;2024-01-06T08:05:45;12.98;;;6.25;;
78296;SDS011;67555;47.660;19.622;2024-01-06T08:08:11;22.88;;;12.27;;
78296;SDS011;67555;47.660;19.622;2024-01-06T08:10:40;17.95;;;10.32;;
78296;SDS011;67555;47.660;19.622;2024-01-06T08:13:05;18.75;;;9.75;;
78296;SDS011;67555;47.660;19.622;2024-01-06T08:15:31;14.15;;;8.07;;
78296;SDS011;67555;47.660;19.622;2024-01-06T08:17:57;11.82;;;6.32;;
78296;SDS011;67555;47.660;19.622;2024-01-06T08:20:23;9.52;;;6.78;;
78296;SDS011;67555;47.660;19.622;2024-01-06T08:22:48;17.42;;;10.82;;
78296;SDS011;67555;47.660;19.622;2024-01-06T08:25:15;15.02;;;7.60;;
78296;SDS011;67555;47.660;19.622;2024-01-06T08:27:42;15.63;;;8.27;;
78296;SDS011;67555;47.660;19.622;2024-01-06T08:30:11;10.52;;;6.15;;
78296;SDS011;67555;47.660;19.622;2024-01-06T08:32:52;13.77;;;7.25;;
78296;SDS011;67555;47.660;19.622;2024-01-06T08:35:33;11.75;;;6.38;;
78296;SDS011;67555;47.660;19.622;2024-01-06T08:38:07;13.27;;;7.43;;
78296;SDS011;67555;47.660;19.622;2024-01-06T08:40:33;15.15;;;9.35;;
78296;SDS011;67555;47.660;19.622;2024-01-06T08:43:03;9.43;;;5.45;;
78296;SDS011;67555;47.660;19.622;2024-01-06T08:45:29;11.80;;;6.13;;
78296;SDS011;67555;47.660;19.622;2024-01-06T08:47:55;11.00;;;6.28;;
78296;SDS011;67555;47.660;19.622;2024-01-06T08:50:21;27.58;;;12.00;;
78296;SDS011;67555;47.660;19.622;2024-01-06T08:52:47;68.60;;;26.10;;
78296;SDS011;67555;47.660;19.622;2024-01-06T08:55:13;284.13;;;90.82;;
78296;SDS011;67555;47.660;19.622;2024-01-06T08:57:42;35.47;;;17.45;;
78296;SDS011;67555;47.660;19.622;2024-01-06T09:00:11;37.45;;;17.48;;
78296;SDS011;67555;47.660;19.622;2024-01-06T09:02:41;28.23;;;13.82;;
78296;SDS011;67555;47.660;19.622;2024-01-06T09:05:25;38.60;;;18.20;;
78296;SDS011;67555;47.660;19.622;2024-01-06T09:07:51;16.00;;;8.70;;
78296;SDS011;67555;47.660;19.622;2024-01-06T09:10:17;12.38;;;7.10;;
78296;SDS011;67555;47.660;19.622;2024-01-06T09:12:44;12.07;;;6.85;;
78296;SDS011;67555;47.660;19.622;2024-01-06T09:15:10;13.25;;;7.70;;
78296;SDS011;67555;47.660;19.622;2024-01-06T09:17:36;14.35;;;7.70;;
78296;SDS011;67555;47.660;19.622;2024-01-06T09:20:05;18.80;;;10.80;;
78296;SDS011;67555;47.660;19.622;2024-01-06T09:22:31;29.52;;;15.15;;
78296;SDS011;67555;47.660;19.622;2024-01-06T09:24:57;21.45;;;9.23;;
78296;SDS011;67555;47.660;19.622;2024-01-06T09:27:23;20.80;;;8.95;;
78296;SDS011;67555;47.660;19.622;2024-01-06T09:29:49;11.88;;;7.03;;
78296;SDS011;67555;47.660;19.622;2024-01-06T09:32:16;63.13;;;25.67;;
78296;SDS011;67555;47.660;19.622;2024-01-06T09:34:41;12.63;;;6.00;;
78296;SDS011;67555;47.660;19.622;2024-01-06T09:37:07;11.45;;;6.63;;
78296;SDS011;67555;47.660;19.622;2024-01-06T09:39:34;13.15;;;6.65;;
78296;SDS011;67555;47.660;19.622;2024-01-06T09:42:00;12.20;;;7.28;;
78296;SDS011;67555;47.660;19.622;2024-01-06T09:44:26;17.27;;;7.30;;
78296;SDS011;67555;47.660;19.622;2024-01-06T09:46:52;17.45;;;7.60;;
78296;SDS011;67555;47.660;19.622;2024-01-06T09:49:23;44.13;;;23.95;;
78296;SDS011;67555;47.660;19.622;2024-01-06T09:51:50;20.73;;;11.25;;
78296;SDS011;67555;47.660;19.622;2024-01-06T09:54:23;15.90;;;9.13;;
78296;SDS011;67555;47.660;19.622;2024-01-06T09:56:53;11.18;;;6.25;;
78296;SDS011;67555;47.660;19.622;2024-01-06T09:59:20;13.60;;;7.47;;
78296;SDS011;67555;47.660;19.622;2024-01-06T10:01:46;9.95;;;5.43;;
78296;SDS011;67555;47.660;19.622;2024-01-06T10:04:15;8.50;;;5.30;;
78296;SDS011;67555;47.660;19.622;2024-01-06T10:06:41;11.65;;;7.95;;
78296;SDS011;67555;47.660;19.622;2024-01-06T10:09:07;17.58;;;9.98;;
78296;SDS011;67555;47.660;19.622;2024-01-06T10:11:33;37.53;;;14.02;;
78296;SDS011;67555;47.660;19.622;2024-01-06T10:14:04;33.47;;;13.13;;
78296;SDS011;67555;47.660;19.622;2024-01-06T10:16:31;47.08;;;19.48;;
78296;SDS011;67555;47.660;19.622;2024-01-06T10:18:59;48.20;;;23.23;;
78296;SDS011;67555;47.660;19.622;2024-01-06T10:21:25;30.85;;;14.38;;
78296;SDS011;67555;47.660;19.622;2024-01-06T10:23:51;36.10;;;17.35;;
78296;SDS011;67555;47.660;19.622;2024-01-06T10:26:18;39.78;;;18.20;;
78296;SDS011;67555;47.660;19.622;2024-01-06T10:28:44;33.00;;;15.40;;
78296;SDS011;67555;47.660;19.622;2024-01-06T10:31:10;37.58;;;18.77;;
78296;SDS011;67555;47.660;19.622;2024-01-06T10:33:36;28.98;;;12.25;;
78296;SDS011;67555;47.660;19.622;2024-01-06T10:36:02;37.13;;;14.70;;
78296;SDS011;67555;47.660;19.622;2024-01-06T10:38:30;270.15;;;99.07;;
78296;SDS011;67555;47.660;19.622;2024-01-06T10:40:56;38.20;;;16.05;;
78296;SDS011;67555;47.660;19.622;2024-01-06T10:43:32;37.72;;;20.02;;
78296;SDS011;67555;47.660;19.622;2024-01-06T10:46:09;39.05;;;17.73;;
78296;SDS011;67555;47.660;19.622;2024-01-06T10:48:39;22.67;;;12.10;;
78296;SDS011;67555;47.660;19.622;2024-01-06T10:51:08;28.98;;;14.35;;
78296;SDS011;67555;47.660;19.622;2024-01-06T10:53:35;21.17;;;8.80;;
78296;SDS011;67555;47.660;19.622;2024-01-06T10:56:02;19.00;;;9.77;;
78296;SDS011;67555;47.660;19.622;2024-01-06T10:58:29;20.75;;;10.32;;
78296;SDS011;67555;47.660;19.622;2024-01-06T11:00:57;19.83;;;10.15;;
78296;SDS011;67555;47.660;19.622;2024-01-06T11:03:23;22.73;;;11.52;;
78296;SDS011;67555;47.660;19.622;2024-01-06T11:05:50;20.33;;;9.23;;
78296;SDS011;67555;47.660;19.622;2024-01-06T11:08:18;17.75;;;8.10;;
78296;SDS011;67555;47.660;19.622;2024-01-06T11:10:46;18.95;;;9.02;;
78296;SDS011;67555;47.660;19.622;2024-01-06T11:13:13;23.50;;;10.65;;
78296;SDS011;67555;47.660;19.622;2024-01-06T11:15:49;25.33;;;11.02;;
78296;SDS011;67555;47.660;19.622;2024-01-06T11:18:32;55.45;;;19.58;;
78296;SDS011;67555;47.660;19.622;2024-01-06T11:23:37;169.93;;;57.08;;
78296;SDS011;67555;47.660;19.622;2024-01-06T11:26:03;19.05;;;9.02;;
78296;SDS011;67555;47.660;19.622;2024-01-06T11:28:31;17.60;;;9.07;;
78296;SDS011;67555;47.660;19.622;2024-01-06T11:31:07;41.92;;;24.33;;
78296;SDS011;67555;47.660;19.622;2024-01-06T11:33:40;47.15;;;22.42;;
78296;SDS011;67555;47.660;19.622;2024-01-06T11:36:09;30.30;;;15.32;;
78296;SDS011;67555;47.660;19.622;2024-01-06T11:38:39;212.75;;;91.07;;
78296;SDS011;67555;47.660;19.622;2024-01-06T11:41:07;92.90;;;41.08;;
78296;SDS011;67555;47.660;19.622;2024-01-06T11:43:34;24.58;;;14.60;;
78296;SDS011;67555;47.660;19.622;2024-01-06T11:46:02;94.18;;;45.40;;
78296;SDS011;67555;47.660;19.622;2024-01-06T11:48:32;43.00;;;19.63;;
78296;SDS011;67555;47.660;19.622;2024-01-06T11:50:58;29.10;;;15.43;;
78296;SDS011;67555;47.660;19.622;2024-01-06T11:53:26;58.58;;;30.70;;
78296;SDS011;67555;47.660;19.622;2024-01-06T11:55:53;26.00;;;12.75;;
78296;SDS011;67555;47.660;19.622;2024-01-06T11:58:19;25.33;;;15.73;;
78296;SDS011;67555;47.660;19.622;2024-01-06T12:00:44;17.65;;;8.43;;
78296;SDS011;67555;47.660;19.622;2024-01-06T12:03:21;16.13;;;8.63;;
78296;SDS011;67555;47.660;19.622;2024-01-06T12:05:58;24.92;;;13.05;;
78296;SDS011;67555;47.660;19.622;2024-01-06T12:08:26;20.08;;;10.07;;
78296;SDS011;67555;47.660;19.622;2024-01-06T12:11:01;20.50;;;10.48;;
78296;SDS011;67555;47.660;19.622;2024-01-06T12:13:27;14.18;;;9.25;;
78296;SDS011;67555;47.660;19.622;2024-01-06T12:15:53;24.30;;;11.10;;
78296;SDS011;67555;47.660;19.622;2024-01-06T12:18:20;38.00;;;14.77;;
78296;SDS011;67555;47.660;19.622;2024-01-06T12:20:46;54.08;;;18.73;;
78296;SDS011;67555;47.660;19.622;2024-01-06T12:23:11;33.92;;;14.52;;
78296;SDS011;67555;47.660;19.622;2024-01-06T12:25:37;26.25;;;12.38;;
78296;SDS011;67555;47.660;19.622;2024-01-06T12:28:05;83.55;;;37.25;;
78296;SDS011;67555;47.660;19.622;2024-01-06T12:30:31;45.42;;;22.35;;
78296;SDS011;67555;47.660;19.622;2024-01-06T12:33:00;45.40;;;24.75;;
78296;SDS011;67555;47.660;19.622;2024-01-06T12:35:26;25.88;;;14.30;;
78296;SDS011;67555;47.660;19.622;2024-01-06T12:37:52;35.80;;;21.60;;
78296;SDS011;67555;47.660;19.622;2024-01-06T12:40:17;26.55;;;13.88;;
78296;SDS011;67555;47.660;19.622;2024-01-06T12:42:44;32.08;;;17.27;;
78296;SDS011;67555;47.660;19.622;2024-01-06T12:45:11;22.75;;;12.07;;
78296;SDS011;67555;47.660;19.622;2024-01-06T12:47:39;24.02;;;10.90;;
78296;SDS011;67555;47.660;19.622;2024-01-06T12:50:05;22.85;;;9.57;;
78296;SDS011;67555;47.660;19.622;2024-01-06T12:52:31;17.75;;;9.60;;
78296;SDS011;67555;47.660;19.622;2024-01-06T12:54:58;19.65;;;9.32;;
78296;SDS011;67555;47.660;19.622;2024-01-06T12:57:24;17.88;;;8.50;;
78296;SDS011;67555;47.660;19.622;2024-01-06T12:59:50;17.50;;;8.45;;
78296;SDS011;67555;47.660;19.622;2024-01-06T13:02:16;14.23;;;6.97;;
78296;SDS011;67555;47.660;19.622;2024-01-06T13:04:43;27.55;;;12.77;;
78296;SDS011;67555;47.660;19.622;2024-01-06T13:07:08;20.55;;;10.85;;
78296;SDS011;67555;47.660;19.622;2024-01-06T13:09:34;19.63;;;9.75;;
78296;SDS011;67555;47.660;19.622;2024-01-06T13:12:00;18.10;;;8.07;;
78296;SDS011;67555;47.660;19.622;2024-01-06T13:14:26;19.70;;;9.00;;
78296;SDS011;67555;47.660;19.622;2024-01-06T13:16:53;17.90;;;10.00;;
78296;SDS011;67555;47.660;19.622;2024-01-06T13:19:19;21.67;;;11.43;;
78296;SDS011;67555;47.660;19.622;2024-01-06T13:21:46;14.30;;;7.40;;
78296;SDS011;67555;47.660;19.622;2024-01-06T13:24:12;12.15;;;7.75;;
78296;SDS011;67555;47.660;19.622;2024-01-06T13:26:38;18.23;;;8.07;;
78296;SDS011;67555;47.660;19.622;2024-01-06T13:29:04;12.45;;;7.18;;
78296;SDS011;67555;47.660;19.622;2024-01-06T13:31:30;18.33;;;8.73;;
78296;SDS011;67555;47.660;19.622;2024-01-06T13:33:56;19.30;;;8.80;;
78296;SDS011;67555;47.660;19.622;2024-01-06T13:36:22;17.13;;;8.57;;
78296;SDS011;67555;47.660;19.622;2024-01-06T13:38:48;24.83;;;12.20;;
78296;SDS011;67555;47.660;19.622;2024-01-06T13:41:14;36.70;;;16.17;;
78296;SDS011;67555;47.660;19.622;2024-01-06T13:43:40;16.17;;;10.00;;
78296;SDS011;67555;47.660;19.622;2024-01-06T13:46:06;19.58;;;9.70;;
78296;SDS011;67555;47.660;19.622;2024-01-06T13:48:32;15.60;;;9.75;;
78296;SDS011;67555;47.660;19.622;2024-01-06T13:50:58;20.15;;;10.82;;
78296;SDS011;67555;47.660;19.622;2024-01-06T13:53:24;18.63;;;11.00;;
78296;SDS011;67555;47.660;19.622;2024-01-06T13:55:50;17.48;;;9.93;;
78296;SDS011;67555;47.660;19.622;2024-01-06T13:58:16;16.92;;;7.72;;
78296;SDS011;67555;47.660;19.622;2024-01-06T14:00:43;10.73;;;6.15;;
78296;SDS011;67555;47.660;19.622;2024-01-06T14:03:09;17.27;;;8.30;;
78296;SDS011;67555;47.660;19.622;2024-01-06T14:05:36;16.60;;;8.38;;
78296;SDS011;67555;47.660;19.622;2024-01-06T14:08:05;19.77;;;10.00;;
78296;SDS011;67555;47.660;19.622;2024-01-06T14:10:31;20.02;;;11.00;;
78296;SDS011;67555;47.660;19.622;2024-01-06T14:12:57;18.50;;;9.32;;